Time;durP1;ratioP1;P1;durP2;ratioP2;P2;SDS_P1;SDS_P2;PMS_P1;PMS_P2;Temp;Humidity;BMP_temperature;BMP_pressure;BME280_temperature;BME280_humidity;BME280_pressure;Samples;Min_cycle;Max_cycle;Signal;HPM_P1;HPM_P2
2024/03/10 00:02:43;;;;;;;9.50;5.38;;;;;;;;;;4900413;29;20035;-88
2024/03/10 00:05:29;;;;;;;12.30;5.15;;;;;;;;;;4900060;29;20040;-89
2024/03/10 00:08:14;;;;;;;8.73;5.00;;;;;;;;;;4898981;29;20020;-88
2024/03/10 00:11:00;;;;;;;8.13;4.68;;;;;;;;;;4893203;29;20064;-88
2024/03/10 00:13:45;;;;;;;8.68;5.18;;;;;;;;;;4888396;29;20029;-88
2024/03/10 00:16:31;;;;;;;7.22;4.05;;;;;;;;;;4892415;29;20087;-88
2024/03/10 00:19:17;;;;;;;10.38;4.53;;;;;;;;;;4889556;29;20036;-88
2024/03/10 00:22:02;;;;;;;10.55;4.40;;;;;;;;;;4900014;29;20607;-88
2024/03/10 00:24:49;;;;;;;8.63;4.50;;;;;;;;;;4899231;29;20040;-87
2024/03/10 00:27:37;;;;;;;13.45;5.05;;;;;;;;;;4900258;29;20044;-87
2024/03/10 00:30:23;;;;;;;7.63;4.60;;;;;;;;;;4910465;29;20483;-88
2024/03/10 00:33:08;;;;;;;10.18;4.30;;;;;;;;;;4898969;29;20054;-88
2024/03/10 00:35:54;;;;;;;13.77;4.57;;;;;;;;;;4912815;29;20054;-88
2024/03/10 00:38:39;;;;;;;8.88;4.70;;;;;;;;;;4895310;29;20032;-88
2024/03/10 00:41:24;;;;;;;7.45;3.92;;;;;;;;;;4899115;29;20024;-87
2024/03/10 00:44:10;;;;;;;7.32;4.07;;;;;;;;;;4897258;29;20169;-88
2024/03/10 00:46:57;;;;;;;11.18;4.93;;;;;;;;;;4898918;29;20111;-88
2024/03/10 00:49:42;;;;;;;8.40;4.85;;;;;;;;;;4898785;29;20433;-88
2024/03/10 00:52:27;;;;;;;8.52;4.80;;;;;;;;;;4898628;29;20534;-88
2024/03/10 00:55:13;;;;;;;7.82;4.05;;;;;;;;;;4898055;29;20491;-87
2024/03/10 00:57:58;;;;;;;6.28;3.60;;;;;;;;;;4912105;29;20368;-88
2024/03/10 01:00:44;;;;;;;8.30;3.92;;;;;;;;;;4908907;29;20535;-88
2024/03/10 01:03:29;;;;;;;6.50;3.78;;;;;;;;;;4890475;29;20032;-88
2024/03/10 01:06:14;;;;;;;7.15;3.92;;;;;;;;;;4880201;29;20028;-87
2024/03/10 01:09:00;;;;;;;6.70;3.80;;;;;;;;;;4891048;29;20031;-88
2024/03/10 01:11:47;;;;;;;9.10;4.63;;;;;;;;;;4886004;29;20046;-87
2024/03/10 01:14:33;;;;;;;8.85;4.40;;;;;;;;;;4898415;29;20471;-88
2024/03/10 01:17:18;;;;;;;10.27;3.78;;;;;;;;;;4904480;29;20038;-87
2024/03/10 01:20:06;;;;;;;7.93;3.83;;;;;;;;;;4898034;29;20558;-88
2024/03/10 01:22:52;;;;;;;7.47;4.40;;;;;;;;;;4898230;29;20039;-89
2024/03/10 01:25:37;;;;;;;9.60;4.18;;;;;;;;;;4898073;29;20032;-87
2024/03/10 01:28:22;;;;;;;7.18;3.83;;;;;;;;;;4898285;29;20025;-89
2024/03/10 01:31:09;;;;;;;7.13;4.07;;;;;;;;;;4898220;29;20020;-87
2024/03/10 01:33:54;;;;;;;8.32;3.97;;;;;;;;;;4894898;29;20572;-88
2024/03/10 01:36:40;;;;;;;5.78;3.53;;;;;;;;;;4917295;29;20035;-88
2024/03/10 01:39:25;;;;;;;8.77;3.92;;;;;;;;;;4891962;29;20024;-88
2024/03/10 01:42:10;;;;;;;9.38;4.22;;;;;;;;;;4898364;29;20384;-88
2024/03/10 01:44:56;;;;;;;9.48;4.00;;;;;;;;;;4907035;29;20028;-88
2024/03/10 01:47:43;;;;;;;6.65;3.80;;;;;;;;;;4891285;29;20043;-89
2024/03/10 01:50:30;;;;;;;8.70;4.88;;;;;;;;;;4894713;29;20124;-88
2024/03/10 01:53:16;;;;;;;6.95;4.28;;;;;;;;;;4898089;29;20071;-88
2024/03/10 01:56:03;;;;;;;6.57;3.30;;;;;;;;;;4932032;29;20384;-88
2024/03/10 01:58:50;;;;;;;7.18;3.97;;;;;;;;;;4914920;29;20024;-89
2024/03/10 02:01:38;;;;;;;8.43;4.18;;;;;;;;;;4911961;29;20383;-88
2024/03/10 02:04:24;;;;;;;7.25;3.65;;;;;;;;;;4898261;29;20036;-89
2024/03/10 02:07:09;;;;;;;8.98;4.80;;;;;;;;;;4894274;29;20032;-88
2024/03/10 02:09:58;;;;;;;8.23;3.83;;;;;;;;;;4890810;29;20024;-89
2024/03/10 02:12:43;;;;;;;7.63;3.93;;;;;;;;;;4898703;29;20026;-88
2024/03/10 02:15:32;;;;;;;6.88;3.63;;;;;;;;;;4902020;29;20106;-87
2024/03/10 02:18:17;;;;;;;6.53;3.75;;;;;;;;;;4901203;29;20114;-89
2024/03/10 02:21:03;;;;;;;6.00;4.05;;;;;;;;;;4897444;29;20123;-89
2024/03/10 02:23:58;;;;;;;7.03;3.83;;;;;;;;;;4897795;29;20079;-89
2024/03/10 02:26:46;;;;;;;9.02;3.67;;;;;;;;;;4895730;29;20036;-88
2024/03/10 02:29:49;;;;;;;6.53;3.60;;;;;;;;;;4897125;29;20032;-87
2024/03/10 02:48:11;;;;;;;8.48;3.58;;;;;;;;;;4885244;29;20041;-88
2024/03/10 02:51:02;;;;;;;7.95;4.40;;;;;;;;;;4876197;29;20514;-88
2024/03/10 02:54:16;;;;;;;5.85;3.67;;;;;;;;;;4864284;29;20033;-87
2024/03/10 02:57:02;;;;;;;9.80;4.20;;;;;;;;;;4862354;29;20056;-90
2024/03/10 02:59:48;;;;;;;8.90;4.05;;;;;;;;;;4870496;29;20029;-88
2024/03/10 03:02:33;;;;;;;6.97;4.03;;;;;;;;;;4862704;29;20033;-88
2024/03/10 03:05:19;;;;;;;7.97;3.72;;;;;;;;;;4862936;29;20025;-87
2024/03/10 03:08:04;;;;;;;7.90;3.78;;;;;;;;;;4881620;29;20052;-86
2024/03/10 03:10:50;;;;;;;7.22;3.97;;;;;;;;;;4896673;29;20035;-87
2024/03/10 03:13:36;;;;;;;9.25;4.30;;;;;;;;;;4897227;29;20036;-87
2024/03/10 03:16:21;;;;;;;6.55;3.70;;;;;;;;;;4898286;29;20024;-86
2024/03/10 03:19:06;;;;;;;9.80;4.15;;;;;;;;;;4899517;29;20020;-87
2024/03/10 03:21:52;;;;;;;9.55;4.50;;;;;;;;;;4901285;29;20116;-86
2024/03/10 03:24:37;;;;;;;8.75;4.13;;;;;;;;;;4880114;29;20076;-87
2024/03/10 03:27:25;;;;;;;6.07;3.67;;;;;;;;;;4887571;29;20029;-87
2024/03/10 03:30:10;;;;;;;6.65;3.83;;;;;;;;;;4886271;29;20076;-86
2024/03/10 03:32:55;;;;;;;7.55;4.47;;;;;;;;;;4885167;29;20184;-88
2024/03/10 03:35:41;;;;;;;7.45;4.38;;;;;;;;;;4884747;29;20569;-87
2024/03/10 03:38:26;;;;;;;8.63;4.53;;;;;;;;;;4894509;29;20024;-88
2024/03/10 03:41:12;;;;;;;5.78;3.38;;;;;;;;;;4901744;29;20025;-86
2024/03/10 03:43:59;;;;;;;7.30;4.55;;;;;;;;;;4901294;29;20036;-88
2024/03/10 03:46:44;;;;;;;7.40;3.45;;;;;;;;;;4897540;29;20031;-87
2024/03/10 03:49:30;;;;;;;7.13;3.75;;;;;;;;;;4895914;29;20005;-88
2024/03/10 03:52:16;;;;;;;8.68;3.95;;;;;;;;;;4885652;29;20149;-88
2024/03/10 03:55:01;;;;;;;6.88;4.07;;;;;;;;;;4885741;29;20592;-87
2024/03/10 03:57:46;;;;;;;10.07;4.30;;;;;;;;;;4865435;29;20429;-87
2024/03/10 04:00:32;;;;;;;6.65;3.92;;;;;;;;;;4881274;29;20088;-88
2024/03/10 04:03:18;;;;;;;5.65;3.58;;;;;;;;;;4871721;29;20088;-88
2024/03/10 04:06:05;;;;;;;7.57;3.85;;;;;;;;;;4882575;29;20119;-88
2024/03/10 04:08:53;;;;;;;7.25;4.20;;;;;;;;;;4879964;29;20499;-88
2024/03/10 04:11:42;;;;;;;7.32;3.90;;;;;;;;;;4879992;29;20164;-88
2024/03/10 04:14:28;;;;;;;6.68;3.97;;;;;;;;;;4883762;29;20330;-88
2024/03/10 04:17:13;;;;;;;7.13;4.60;;;;;;;;;;4899657;29;20040;-87
2024/03/10 04:19:59;;;;;;;6.95;3.88;;;;;;;;;;4899810;29;20105;-88
2024/03/10 04:22:48;;;;;;;6.28;4.10;;;;;;;;;;4886426;29;20024;-88
2024/03/10 04:25:34;;;;;;;8.85;4.28;;;;;;;;;;4863564;29;20044;-89
2024/03/10 04:28:19;;;;;;;5.63;3.35;;;;;;;;;;4880282;29;20027;-88
2024/03/10 04:31:05;;;;;;;6.32;3.80;;;;;;;;;;4878803;29;20064;-87
2024/03/10 04:33:51;;;;;;;8.13;4.63;;;;;;;;;;4888097;29;20067;-88
2024/03/10 04:36:36;;;;;;;7.78;3.90;;;;;;;;;;4896452;29;20111;-87
2024/03/10 04:39:22;;;;;;;6.55;3.63;;;;;;;;;;4898960;29;20086;-87
2024/03/10 04:42:08;;;;;;;6.28;3.63;;;;;;;;;;4898650;29;20364;-87
2024/03/10 04:44:59;;;;;;;10.55;4.43;;;;;;;;;;4898775;29;20542;-88
2024/03/10 04:47:44;;;;;;;6.85;3.97;;;;;;;;;;4897192;29;20059;-87
2024/03/10 04:50:29;;;;;;;7.60;4.05;;;;;;;;;;4880070;29;20021;-88
2024/03/10 04:53:15;;;;;;;8.38;3.90;;;;;;;;;;4898742;29;20491;-87
2024/03/10 04:56:01;;;;;;;7.53;3.50;;;;;;;;;;4896716;29;20066;-86
2024/03/10 04:58:46;;;;;;;7.57;3.65;;;;;;;;;;4910747;29;20088;-89
2024/03/10 05:01:31;;;;;;;8.38;3.80;;;;;;;;;;4882282;29;20491;-87
2024/03/10 05:04:18;;;;;;;6.28;3.75;;;;;;;;;;4898409;29;20032;-87
2024/03/10 05:07:04;;;;;;;7.85;3.72;;;;;;;;;;4898560;29;20422;-88
2024/03/10 05:09:50;;;;;;;6.05;3.13;;;;;;;;;;4898222;29;20052;-88
2024/03/10 05:12:35;;;;;;;7.30;4.03;;;;;;;;;;4896236;29;20146;-88
2024/03/10 05:15:21;;;;;;;6.65;3.67;;;;;;;;;;4898141;29;20432;-87
2024/03/10 05:18:06;;;;;;;7.13;3.75;;;;;;;;;;4897762;29;20016;-87
2024/03/10 05:20:52;;;;;;;7.70;3.65;;;;;;;;;;4897855;29;20028;-88
2024/03/10 05:23:38;;;;;;;6.93;3.58;;;;;;;;;;4895487;29;20159;-87
2024/03/10 05:26:23;;;;;;;8.73;4.18;;;;;;;;;;4894033;29;20032;-87
2024/03/10 05:29:09;;;;;;;7.55;3.63;;;;;;;;;;4895740;29;20026;-87
2024/03/10 05:31:54;;;;;;;7.75;3.70;;;;;;;;;;4910606;29;20024;-87
2024/03/10 05:34:39;;;;;;;6.05;3.20;;;;;;;;;;4878675;29;20053;-87
2024/03/10 05:37:25;;;;;;;6.32;3.80;;;;;;;;;;4865917;29;20043;-86
2024/03/10 05:40:11;;;;;;;6.60;3.75;;;;;;;;;;4878711;29;20028;-87
2024/03/10 05:42:56;;;;;;;6.45;3.80;;;;;;;;;;4903631;29;20028;-87
2024/03/10 05:45:41;;;;;;;6.22;4.00;;;;;;;;;;4895586;29;20059;-87
2024/03/10 05:48:27;;;;;;;8.73;3.40;;;;;;;;;;4898095;29;20305;-87
2024/03/10 05:51:13;;;;;;;6.75;3.20;;;;;;;;;;4897175;29;20171;-87
2024/03/10 05:53:59;;;;;;;7.45;3.65;;;;;;;;;;4897265;29;20024;-87
2024/03/10 05:56:44;;;;;;;5.93;3.40;;;;;;;;;;4897112;29;20518;-87
2024/03/10 05:59:30;;;;;;;6.88;3.85;;;;;;;;;;4897270;29;20130;-88
2024/03/10 06:02:16;;;;;;;7.40;3.80;;;;;;;;;;4903167;29;20774;-88
2024/03/10 06:05:01;;;;;;;5.00;3.17;;;;;;;;;;4894904;29;20038;-87
2024/03/10 06:07:47;;;;;;;5.47;3.28;;;;;;;;;;4878715;29;20052;-87
2024/03/10 06:10:32;;;;;;;6.93;3.60;;;;;;;;;;4891066;29;20028;-86
2024/03/10 06:13:17;;;;;;;7.38;4.30;;;;;;;;;;4896868;29;20103;-88
2024/03/10 06:16:03;;;;;;;6.18;3.35;;;;;;;;;;4897187;29;20028;-87
2024/03/10 06:27:54;;;;;;;7.45;3.53;;;;;;;;;;4896933;29;20119;-88
2024/03/10 06:30:40;;;;;;;8.02;3.53;;;;;;;;;;4896405;29;20060;-88
2024/03/10 06:33:28;;;;;;;7.00;4.07;;;;;;;;;;4896473;29;20052;-88
2024/03/10 06:36:14;;;;;;;7.95;4.40;;;;;;;;;;4896463;29;20107;-85
2024/03/10 06:38:59;;;;;;;7.95;3.67;;;;;;;;;;4877470;29;20032;-87
2024/03/10 06:41:45;;;;;;;6.30;3.65;;;;;;;;;;4894184;29;20064;-87
2024/03/10 06:44:30;;;;;;;6.85;3.95;;;;;;;;;;4896739;29;20103;-87
2024/03/10 06:47:16;;;;;;;6.95;4.07;;;;;;;;;;4896098;29;20071;-87
2024/03/10 06:50:04;;;;;;;7.65;4.47;;;;;;;;;;4896632;29;20024;-87
2024/03/10 06:52:50;;;;;;;6.00;3.35;;;;;;;;;;4895964;29;20031;-87
2024/03/10 06:55:35;;;;;;;8.27;4.20;;;;;;;;;;4894695;29;20024;-87
2024/03/10 06:58:20;;;;;;;9.77;3.88;;;;;;;;;;4900874;29;20383;-87
2024/03/10 07:01:06;;;;;;;6.57;3.95;;;;;;;;;;4915292;29;20724;-87
2024/03/10 07:03:52;;;;;;;7.78;3.78;;;;;;;;;;4879979;29;20422;-87
2024/03/10 07:06:39;;;;;;;6.82;3.40;;;;;;;;;;4894586;29;20040;-87
2024/03/10 07:09:25;;;;;;;6.80;4.18;;;;;;;;;;4896748;29;20027;-87
2024/03/10 07:12:10;;;;;;;6.97;4.05;;;;;;;;;;4896002;29;20492;-86
2024/03/10 07:14:57;;;;;;;7.53;4.20;;;;;;;;;;4897815;29;20036;-86
2024/03/10 07:17:42;;;;;;;9.00;4.40;;;;;;;;;;4893863;29;20131;-86
2024/03/10 07:20:27;;;;;;;8.15;4.38;;;;;;;;;;4896199;29;20032;-87
2024/03/10 07:23:13;;;;;;;6.25;3.97;;;;;;;;;;4883615;29;20058;-87
2024/03/10 07:25:58;;;;;;;6.88;3.92;;;;;;;;;;4896367;29;20064;-88
2024/03/10 07:28:43;;;;;;;8.63;3.85;;;;;;;;;;4896479;29;20047;-87
2024/03/10 07:31:29;;;;;;;7.68;4.47;;;;;;;;;;4893143;29;20473;-87
2024/03/10 07:34:14;;;;;;;7.22;3.58;;;;;;;;;;4877567;29;20053;-87
2024/03/10 07:37:00;;;;;;;7.97;4.13;;;;;;;;;;4883081;29;20032;-88
2024/03/10 07:39:45;;;;;;;9.20;4.22;;;;;;;;;;4878290;29;20032;-88
2024/03/10 07:42:31;;;;;;;8.02;4.70;;;;;;;;;;4913723;29;20013;-89
2024/03/10 07:45:19;;;;;;;9.15;4.43;;;;;;;;;;4934450;29;20020;-88
2024/03/10 07:48:05;;;;;;;8.32;4.07;;;;;;;;;;4919336;29;20100;-89
2024/03/10 07:50:50;;;;;;;6.65;3.78;;;;;;;;;;4920708;29;20020;-88
2024/03/10 07:53:36;;;;;;;8.80;4.65;;;;;;;;;;4921958;29;20072;-85
2024/03/10 07:56:20;;;;;;;9.95;3.92;;;;;;;;;;4919797;29;20039;-86
2024/03/10 07:59:07;;;;;;;6.20;3.78;;;;;;;;;;4897601;29;20034;-84
2024/03/10 08:01:52;;;;;;;7.13;4.38;;;;;;;;;;4905944;29;20024;-84
2024/03/10 08:04:40;;;;;;;10.15;4.88;;;;;;;;;;4897451;29;20028;-85
2024/03/10 08:07:25;;;;;;;9.43;4.40;;;;;;;;;;4900171;29;20036;-84
2024/03/10 08:10:14;;;;;;;10.55;4.32;;;;;;;;;;4913714;29;20027;-83
2024/03/10 08:13:01;;;;;;;6.57;3.78;;;;;;;;;;4912971;29;20032;-84
2024/03/10 08:15:47;;;;;;;10.10;5.05;;;;;;;;;;4904404;29;20391;-84
2024/03/10 08:18:32;;;;;;;7.40;4.65;;;;;;;;;;4918330;29;20027;-84
2024/03/10 08:21:18;;;;;;;6.70;3.85;;;;;;;;;;4917895;29;20106;-85
2024/03/10 08:24:04;;;;;;;6.68;3.67;;;;;;;;;;4908570;29;20036;-82
2024/03/10 08:26:49;;;;;;;6.65;3.78;;;;;;;;;;4911918;29;20036;-83
2024/03/10 08:29:35;;;;;;;7.45;3.92;;;;;;;;;;4899232;29;20028;-85
2024/03/10 08:32:20;;;;;;;8.93;3.58;;;;;;;;;;4890561;29;20036;-84
2024/03/10 08:35:09;;;;;;;5.82;3.45;;;;;;;;;;4892674;29;20035;-85
2024/03/10 08:37:54;;;;;;;5.45;3.30;;;;;;;;;;4880494;29;20029;-85
2024/03/10 08:40:41;;;;;;;8.25;3.10;;;;;;;;;;4880213;29;20024;-84
2024/03/10 08:43:28;;;;;;;7.88;3.28;;;;;;;;;;4890603;29;20546;-84
2024/03/10 08:46:13;;;;;;;6.35;3.63;;;;;;;;;;4880159;29;20029;-83
2024/03/10 08:48:58;;;;;;;5.57;3.03;;;;;;;;;;4903430;29;20395;-84
2024/03/10 08:51:44;;;;;;;4.90;2.72;;;;;;;;;;4916730;29;20068;-84
2024/03/10 08:54:29;;;;;;;7.13;3.35;;;;;;;;;;4906791;29;20099;-85
2024/03/10 08:57:14;;;;;;;5.93;3.58;;;;;;;;;;4898311;29;20044;-84
2024/03/10 09:00:03;;;;;;;5.10;2.90;;;;;;;;;;4896533;29;20040;-85
2024/03/10 09:02:49;;;;;;;5.43;3.55;;;;;;;;;;4896371;29;20044;-84
2024/03/10 09:05:35;;;;;;;5.65;3.78;;;;;;;;;;4898724;29;20506;-83
2024/03/10 09:08:20;;;;;;;5.88;3.58;;;;;;;;;;4898752;29;20031;-83
2024/03/10 09:11:06;;;;;;;6.57;3.53;;;;;;;;;;4898827;29;20032;-83
2024/03/10 09:13:51;;;;;;;5.30;2.92;;;;;;;;;;4898590;29;20491;-84
2024/03/10 09:16:37;;;;;;;5.60;3.00;;;;;;;;;;4898622;29;20095;-84
2024/03/10 09:19:22;;;;;;;5.40;3.30;;;;;;;;;;4899001;29;20380;-84
2024/03/10 09:22:08;;;;;;;5.13;2.70;;;;;;;;;;4898852;29;20047;-84
2024/03/10 09:24:54;;;;;;;7.40;2.63;;;;;;;;;;4898617;29;20044;-84
2024/03/10 09:27:43;;;;;;;8.00;3.13;;;;;;;;;;4911888;29;20039;-84
2024/03/10 09:30:30;;;;;;;4.28;2.60;;;;;;;;;;4899517;29;20028;-85
2024/03/10 09:33:17;;;;;;;8.30;3.13;;;;;;;;;;4910647;29;20076;-87
2024/03/10 09:36:05;;;;;;;3.45;2.50;;;;;;;;;;4897820;29;20044;-86
2024/03/10 09:38:52;;;;;;;4.43;2.50;;;;;;;;;;4899091;29;20421;-84
2024/03/10 09:41:37;;;;;;;8.32;2.90;;;;;;;;;;4899345;29;20391;-84
2024/03/10 09:44:23;;;;;;;5.72;2.78;;;;;;;;;;4891305;29;20034;-85
2024/03/10 09:47:08;;;;;;;4.97;3.47;;;;;;;;;;4885660;29;20444;-85
2024/03/10 09:49:54;;;;;;;4.53;2.97;;;;;;;;;;4911136;29;20719;-86
2024/03/10 09:52:39;;;;;;;6.60;3.20;;;;;;;;;;4897585;29;20055;-85
2024/03/10 09:55:25;;;;;;;3.92;2.75;;;;;;;;;;4898321;29;20034;-85
2024/03/10 09:58:15;;;;;;;3.17;2.17;;;;;;;;;;4897772;29;20024;-84
2024/03/10 10:01:03;;;;;;;4.07;2.78;;;;;;;;;;4896546;29;20028;-86
2024/03/10 10:03:52;;;;;;;4.72;2.90;;;;;;;;;;4898047;29;20064;-84
2024/03/10 10:06:40;;;;;;;3.95;2.13;;;;;;;;;;4910657;29;20024;-84
2024/03/10 10:09:26;;;;;;;4.20;2.65;;;;;;;;;;4897641;29;20480;-87
2024/03/10 10:12:13;;;;;;;4.35;2.35;;;;;;;;;;4897922;29;20542;-85
2024/03/10 10:14:58;;;;;;;6.45;2.85;;;;;;;;;;4897615;29;20387;-86
2024/03/10 10:17:53;;;;;;;3.30;2.05;;;;;;;;;;4910724;29;20035;-83
2024/03/10 10:20:38;;;;;;;5.13;3.00;;;;;;;;;;4888715;29;20040;-85
2024/03/10 10:23:24;;;;;;;5.63;2.60;;;;;;;;;;4898365;29;20039;-86
2024/03/10 10:26:09;;;;;;;5.38;2.00;;;;;;;;;;4899373;29;20024;-85
2024/03/10 10:29:12;;;;;;;4.00;2.15;;;;;;;;;;4900206;29;20028;-85
2024/03/10 10:31:58;;;;;;;3.75;2.10;;;;;;;;;;4899042;29;20583;-87
2024/03/10 10:34:44;;;;;;;3.33;2.08;;;;;;;;;;4898078;29;20036;-88
2024/03/10 10:37:34;;;;;;;3.28;1.92;;;;;;;;;;4914194;29;20408;-86
2024/03/10 10:40:22;;;;;;;5.20;2.33;;;;;;;;;;4900112;29;20036;-86
2024/03/10 10:43:12;;;;;;;3.75;2.33;;;;;;;;;;4893936;29;20033;-86
2024/03/10 10:45:58;;;;;;;4.82;2.20;;;;;;;;;;4902040;29;20039;-86
2024/03/10 10:48:47;;;;;;;5.63;2.20;;;;;;;;;;4913539;29;20400;-86
2024/03/10 10:51:33;;;;;;;3.45;2.13;;;;;;;;;;4899772;29;20059;-87
2024/03/10 10:54:27;;;;;;;3.63;1.95;;;;;;;;;;4906207;29;20023;-88
2024/03/10 10:57:13;;;;;;;5.20;2.08;;;;;;;;;;4909622;29;20040;-86
2024/03/10 11:00:13;;;;;;;4.50;2.40;;;;;;;;;;4899512;29;20092;-87
2024/03/10 11:03:06;;;;;;;4.80;2.50;;;;;;;;;;4901992;29;20024;-87
2024/03/10 11:06:05;;;;;;;4.38;2.33;;;;;;;;;;4901810;29;20024;-85
2024/03/10 11:08:52;;;;;;;4.63;1.98;;;;;;;;;;4902740;29;20035;-87
2024/03/10 11:11:44;;;;;;;3.75;2.13;;;;;;;;;;4903167;29;20020;-87
2024/03/10 11:14:30;;;;;;;3.47;2.30;;;;;;;;;;4898229;29;20028;-87
2024/03/10 11:17:16;;;;;;;3.53;2.10;;;;;;;;;;4890994;29;20024;-86
2024/03/10 11:20:02;;;;;;;4.38;2.45;;;;;;;;;;4915629;29;20035;-86
2024/03/10 11:22:52;;;;;;;3.17;2.08;;;;;;;;;;4904084;29;20099;-87
2024/03/10 11:25:37;;;;;;;4.75;2.78;;;;;;;;;;4902121;29;20515;-87
2024/03/10 11:28:25;;;;;;;5.03;2.13;;;;;;;;;;4916434;29;20036;-86
2024/03/10 11:31:12;;;;;;;4.97;2.83;;;;;;;;;;4903484;29;20032;-86
2024/03/10 11:33:58;;;;;;;4.10;1.98;;;;;;;;;;4902250;29;20054;-87
2024/03/10 11:36:46;;;;;;;9.77;2.67;;;;;;;;;;4901362;29;20036;-87
2024/03/10 11:39:34;;;;;;;3.08;2.22;;;;;;;;;;4911810;29;20352;-86
2024/03/10 11:42:19;;;;;;;5.75;2.75;;;;;;;;;;4914218;29;20027;-86
2024/03/10 11:45:05;;;;;;;4.05;2.50;;;;;;;;;;4888062;29;20103;-87
2024/03/10 11:47:50;;;;;;;5.65;2.67;;;;;;;;;;4891718;29;20097;-87
2024/03/10 11:50:36;;;;;;;4.38;2.40;;;;;;;;;;4899180;29;20424;-87
2024/03/10 11:53:21;;;;;;;4.45;2.40;;;;;;;;;;4905251;29;20371;-87
2024/03/10 11:56:07;;;;;;;3.45;2.28;;;;;;;;;;4896579;29;20036;-87
2024/03/10 11:58:53;;;;;;;3.25;2.03;;;;;;;;;;4898557;29;20036;-87
2024/03/10 12:01:39;;;;;;;4.78;2.42;;;;;;;;;;4904940;29;20024;-87
2024/03/10 12:04:27;;;;;;;4.72;2.65;;;;;;;;;;4885191;29;20392;-87
2024/03/10 12:07:13;;;;;;;3.80;2.42;;;;;;;;;;4888071;29;20049;-86
2024/03/10 12:10:08;;;;;;;5.25;2.50;;;;;;;;;;4900686;29;20384;-87
2024/03/10 12:12:53;;;;;;;3.78;2.38;;;;;;;;;;4901816;29;20020;-87
2024/03/10 12:15:39;;;;;;;3.05;2.00;;;;;;;;;;4889458;29;20020;-89
2024/03/10 12:18:25;;;;;;;3.67;2.17;;;;;;;;;;4900676;29;20025;-88
2024/03/10 12:21:18;;;;;;;4.10;2.35;;;;;;;;;;4899860;29;20641;-89
2024/03/10 12:24:04;;;;;;;5.10;2.28;;;;;;;;;;4894738;29;20575;-89
2024/03/10 12:26:50;;;;;;;3.58;1.90;;;;;;;;;;4901054;29;20117;-88
2024/03/10 12:29:45;;;;;;;4.82;2.70;;;;;;;;;;4901521;29;20028;-87
2024/03/10 12:32:31;;;;;;;6.68;2.42;;;;;;;;;;4899286;29;20043;-87
2024/03/10 12:35:19;;;;;;;4.85;2.70;;;;;;;;;;4914121;29;20074;-88
2024/03/10 12:38:06;;;;;;;3.33;2.20;;;;;;;;;;4901902;29;20088;-87
2024/03/10 12:40:51;;;;;;;4.93;2.05;;;;;;;;;;4900312;29;20071;-88
2024/03/10 12:43:36;;;;;;;4.93;3.55;;;;;;;;;;4900260;29;20059;-88
2024/03/10 12:46:23;;;;;;;7.70;3.00;;;;;;;;;;4900017;29;20091;-87
2024/03/10 12:49:08;;;;;;;4.38;2.88;;;;;;;;;;4886841;29;20476;-87
2024/03/10 12:51:54;;;;;;;3.72;2.88;;;;;;;;;;4879836;29;20020;-87
2024/03/10 12:54:39;;;;;;;3.92;1.92;;;;;;;;;;4894940;29;20035;-88
2024/03/10 12:57:25;;;;;;;3.63;2.28;;;;;;;;;;4915239;29;20107;-88
2024/03/10 13:00:25;;;;;;;2.90;2.00;;;;;;;;;;4887900;29;20048;-88
2024/03/10 13:03:10;;;;;;;3.92;2.22;;;;;;;;;;4902820;29;20024;-89
2024/03/10 13:05:55;;;;;;;4.65;2.47;;;;;;;;;;4898972;29;20100;-88
2024/03/10 13:08:43;;;;;;;9.73;4.28;;;;;;;;;;4901172;29;20043;-88
2024/03/10 13:11:29;;;;;;;7.75;4.90;;;;;;;;;;4901171;29;20027;-88
2024/03/10 13:14:14;;;;;;;6.40;2.95;;;;;;;;;;4901794;29;20039;-88
2024/03/10 13:16:59;;;;;;;3.92;2.40;;;;;;;;;;4902757;29;20024;-87
2024/03/10 13:19:45;;;;;;;4.60;2.65;;;;;;;;;;4903508;29;20028;-86
2024/03/10 13:22:30;;;;;;;39.08;21.52;;;;;;;;;;4906716;29;20031;-87
2024/03/10 13:25:17;;;;;;;16.90;7.25;;;;;;;;;;4909182;29;20032;-87
2024/03/10 13:28:02;;;;;;;6.00;3.55;;;;;;;;;;4909608;29;20480;-87
2024/03/10 13:30:48;;;;;;;31.17;19.38;;;;;;;;;;4912660;29;20045;-89
2024/03/10 13:33:33;;;;;;;35.83;22.00;;;;;;;;;;4917094;29;20078;-88
2024/03/10 13:36:19;;;;;;;38.65;24.75;;;;;;;;;;4914021;29;20067;-89
2024/03/10 13:39:04;;;;;;;28.55;17.70;;;;;;;;;;4917184;29;20032;-87
2024/03/10 13:41:53;;;;;;;68.05;42.00;;;;;;;;;;4899809;29;20032;-87
2024/03/10 13:44:38;;;;;;;33.08;22.80;;;;;;;;;;4904383;29;20055;-88
2024/03/10 13:47:24;;;;;;;42.17;25.80;;;;;;;;;;4904087;29;20484;-88
2024/03/10 13:50:10;;;;;;;82.32;45.50;;;;;;;;;;4903275;29;20032;-88
2024/03/10 13:52:55;;;;;;;19.25;10.52;;;;;;;;;;4897696;29;20042;-88
2024/03/10 13:55:41;;;;;;;40.65;26.50;;;;;;;;;;4904418;29;20024;-87
2024/03/10 13:58:26;;;;;;;16.02;9.80;;;;;;;;;;4904185;29;20020;-88
2024/03/10 14:01:15;;;;;;;18.73;10.90;;;;;;;;;;4895746;29;20043;-88
2024/03/10 14:04:02;;;;;;;27.95;16.65;;;;;;;;;;4870873;29;20024;-88
2024/03/10 14:06:47;;;;;;;51.78;30.00;;;;;;;;;;4901917;29;20028;-87
2024/03/10 14:09:32;;;;;;;40.42;23.38;;;;;;;;;;4903157;29;20270;-88
2024/03/10 14:12:20;;;;;;;11.73;6.63;;;;;;;;;;4918728;29;20031;-88
2024/03/10 14:15:09;;;;;;;10.73;5.85;;;;;;;;;;4921768;29;20055;-87
2024/03/10 14:17:56;;;;;;;16.17;10.95;;;;;;;;;;4914025;29;20096;-87
2024/03/10 14:20:44;;;;;;;16.20;10.40;;;;;;;;;;4908045;29;20546;-87
2024/03/10 14:23:29;;;;;;;9.05;5.85;;;;;;;;;;4907151;29;20062;-87
2024/03/10 14:26:17;;;;;;;5.32;3.03;;;;;;;;;;4904120;29;20427;-86
2024/03/10 14:29:02;;;;;;;14.48;8.18;;;;;;;;;;4902191;29;20475;-86
2024/03/10 14:31:48;;;;;;;7.13;4.03;;;;;;;;;;4913865;29;20039;-86
2024/03/10 14:34:36;;;;;;;9.07;4.97;;;;;;;;;;4900544;29;20040;-87
2024/03/10 14:37:21;;;;;;;18.70;11.82;;;;;;;;;;4899242;29;20028;-87
2024/03/10 14:40:21;;;;;;;7.28;3.95;;;;;;;;;;4897486;29;20024;-86
2024/03/10 14:43:06;;;;;;;5.20;3.20;;;;;;;;;;4885774;29;20024;-87
2024/03/10 14:45:54;;;;;;;17.85;9.82;;;;;;;;;;4898606;29;20067;-88
2024/03/10 14:48:39;;;;;;;6.45;4.32;;;;;;;;;;4899366;29;20442;-88
2024/03/10 14:51:26;;;;;;;8.35;4.80;;;;;;;;;;4885990;29;20421;-88
2024/03/10 14:54:48;;;;;;;7.90;4.25;;;;;;;;;;4896956;29;20035;-87
2024/03/10 14:57:36;;;;;;;15.90;9.48;;;;;;;;;;4860348;29;20157;-86
2024/03/10 15:00:32;;;;;;;17.23;10.50;;;;;;;;;;4895600;29;20027;-88
2024/03/10 15:03:21;;;;;;;36.38;19.40;;;;;;;;;;4893666;29;20116;-87
2024/03/10 15:06:07;;;;;;;39.45;24.42;;;;;;;;;;4885548;29;20028;-87
2024/03/10 15:08:57;;;;;;;17.63;10.13;;;;;;;;;;4896536;29;20028;-87
2024/03/10 15:11:42;;;;;;;9.07;4.65;;;;;;;;;;4881687;29;20489;-87
2024/03/10 15:14:28;;;;;;;8.10;4.72;;;;;;;;;;4881428;29;20021;-88
2024/03/10 15:17:14;;;;;;;8.60;5.03;;;;;;;;;;4896328;29;20534;-87
2024/03/10 15:19:59;;;;;;;8.13;4.72;;;;;;;;;;4900908;29;20104;-86
2024/03/10 15:22:45;;;;;;;14.00;8.70;;;;;;;;;;4900495;29;20027;-86
2024/03/10 15:25:34;;;;;;;8.35;5.75;;;;;;;;;;4902277;29;20087;-87
2024/03/10 15:28:22;;;;;;;7.90;5.20;;;;;;;;;;4888398;29;20027;-86
2024/03/10 15:31:08;;;;;;;10.68;5.38;;;;;;;;;;4907319;29;20028;-80
2024/03/10 15:33:54;;;;;;;8.77;5.20;;;;;;;;;;4902153;29;20044;-82
2024/03/10 15:36:39;;;;;;;8.48;4.95;;;;;;;;;;4893667;29;20028;-84
2024/03/10 15:39:27;;;;;;;10.38;6.07;;;;;;;;;;4896519;29;20171;-86
2024/03/10 15:42:16;;;;;;;9.82;5.72;;;;;;;;;;4896042;29;20110;-89
2024/03/10 15:45:01;;;;;;;8.77;5.15;;;;;;;;;;4895428;29;20091;-88
2024/03/10 15:47:48;;;;;;;9.98;5.55;;;;;;;;;;4896492;29;20118;-88
2024/03/10 15:50:33;;;;;;;8.43;5.40;;;;;;;;;;4897282;29;20032;-89
2024/03/10 15:53:18;;;;;;;10.77;6.57;;;;;;;;;;4914083;29;20028;-88
2024/03/10 15:56:04;;;;;;;10.32;5.55;;;;;;;;;;4930520;29;20012;-88
2024/03/10 15:58:49;;;;;;;9.05;5.63;;;;;;;;;;4933390;29;20056;-89
2024/03/10 16:01:40;;;;;;;9.85;6.25;;;;;;;;;;4921174;29;20012;-87
2024/03/10 16:04:24;;;;;;;9.07;5.20;;;;;;;;;;4935237;29;20048;-86
2024/03/10 16:07:08;;;;;;;9.32;5.70;;;;;;;;;;4933924;29;20043;-84
2024/03/10 16:09:54;;;;;;;10.38;5.88;;;;;;;;;;4916858;29;20029;-83
2024/03/10 16:12:40;;;;;;;10.82;6.75;;;;;;;;;;4910528;29;20115;-85
2024/03/10 16:15:29;;;;;;;9.50;5.90;;;;;;;;;;4909446;29;20514;-83
2024/03/10 16:18:15;;;;;;;8.73;5.70;;;;;;;;;;4909618;29;20058;-87
2024/03/10 16:21:01;;;;;;;12.25;6.55;;;;;;;;;;4893826;29;20448;-84
2024/03/10 16:23:48;;;;;;;10.85;5.93;;;;;;;;;;4900207;29;20091;-85
2024/03/10 16:26:34;;;;;;;10.18;6.75;;;;;;;;;;4898149;29;20411;-89
2024/03/10 16:29:23;;;;;;;11.57;6.78;;;;;;;;;;4903692;29;20039;-87
2024/03/10 16:32:08;;;;;;;12.95;6.93;;;;;;;;;;4911505;29;20027;-86
2024/03/10 16:34:56;;;;;;;11.18;6.95;;;;;;;;;;4899974;29;20199;-83
2024/03/10 16:37:41;;;;;;;10.65;6.35;;;;;;;;;;4898675;29;20043;-82
2024/03/10 16:40:27;;;;;;;10.77;6.22;;;;;;;;;;4896620;29;20262;-82
2024/03/10 16:43:13;;;;;;;13.05;6.53;;;;;;;;;;4898097;29;20039;-83
2024/03/10 16:45:58;;;;;;;14.25;7.05;;;;;;;;;;4893141;29;20123;-82
2024/03/10 16:48:45;;;;;;;12.98;7.10;;;;;;;;;;4899727;29;20183;-82
2024/03/10 16:51:30;;;;;;;11.60;7.30;;;;;;;;;;4903425;29;20020;-81
2024/03/10 16:54:16;;;;;;;14.02;8.15;;;;;;;;;;4911244;29;20036;-81
2024/03/10 16:57:01;;;;;;;12.88;7.45;;;;;;;;;;4901834;29;20043;-81
2024/03/10 16:59:49;;;;;;;10.88;6.93;;;;;;;;;;4897746;29;20451;-80
2024/03/10 17:02:34;;;;;;;11.82;8.15;;;;;;;;;;4910668;29;20028;-81